createdAt,value
2023-01-11T00:01:35.484Z,98414.98
2023-01-11T00:05:36.291Z,98419.98
2023-01-11T00:09:01.602Z,98421.63
2023-01-11T00:12:38.037Z,98414.34
2023-01-11T00:16:34.432Z,98411.92
2023-01-11T00:20:18.810Z,98416.92
2023-01-11T00:23:44.451Z,98419.31
2023-01-11T00:27:22.618Z,98422.90
2023-01-11T00:31:00.485Z,98421.55
2023-01-11T00:34:39.917Z,98425.56
2023-01-11T00:38:47.140Z,98418.74
2023-01-11T00:42:31.142Z,98416.98
2023-01-11T00:46:18.865Z,98418.06
2023-01-11T00:49:47.613Z,98416.56
2023-01-11T00:53:26.190Z,98425.26
2023-01-11T00:56:58.860Z,98426.98
2023-01-11T01:00:37.130Z,98431.17
2023-01-11T01:04:33.305Z,98429.75
2023-01-11T01:07:57.764Z,98428.43
2023-01-11T01:11:34.894Z,98429.08
2023-01-11T01:15:13.440Z,98432.05
2023-01-11T01:18:49.989Z,98431.08
2023-01-11T01:22:28.539Z,98429.92
2023-01-11T01:26:07.378Z,98435.27
2023-01-11T01:29:43.211Z,98430.39
2023-01-11T01:33:41.290Z,98427.98
2023-01-11T01:37:25.267Z,98433.73
2023-01-11T01:41:11.868Z,98434.07
2023-01-11T01:45:12.120Z,98436.45
2023-01-11T01:48:39.035Z,98429.09
2023-01-11T01:52:13.667Z,98433.20
2023-01-11T01:55:57.669Z,98434.91
2023-01-11T01:59:51.283Z,98426.73
2023-01-11T02:03:28.040Z,98414.76
2023-01-11T02:07:00.275Z,98414.61
2023-01-11T02:10:52.354Z,98410.36
2023-01-11T02:14:19.318Z,98406.05
2023-01-11T02:17:55.344Z,98405.39
2023-01-11T02:22:08.013Z,98405.96
2023-01-11T02:25:57.323Z,98402.77
2023-01-11T02:29:50.275Z,98397.52
2023-01-11T02:33:56.782Z,98393.12
2023-01-11T02:37:38.665Z,98398.27
2023-01-11T02:41:52.781Z,98398.40
2023-01-11T02:45:35.767Z,98398.63
2023-01-11T02:49:35.174Z,98396.23
2023-01-11T02:53:22.088Z,98392.63
2023-01-11T02:57:09.085Z,98395.84
2023-01-11T03:00:37.268Z,98397.75
2023-01-11T03:04:23.932Z,98393.67
2023-01-11T03:08:38.417Z,98391.73
2023-01-11T03:12:52.230Z,98394.73
2023-01-11T03:16:40.431Z,98404.67
2023-01-11T03:20:30.179Z,98403.05
2023-01-11T03:24:04.045Z,98402.98
2023-01-11T03:27:39.551Z,98403.04
2023-01-11T03:31:31.940Z,98407.66
2023-01-11T03:35:17.243Z,98406.25
2023-01-11T03:38:50.796Z,98408.47
2023-01-11T03:42:23.307Z,98407.49
2023-01-11T03:46:05.202Z,98403.83
2023-01-11T03:50:10.522Z,98398.50
2023-01-11T03:53:57.915Z,98393.67
2023-01-11T03:57:29.878Z,98393.54
2023-01-11T04:01:02.706Z,98393.98
2023-01-11T04:04:38.149Z,98396.06
2023-01-11T04:08:34.551Z,98400.96
2023-01-11T04:12:20.059Z,98404.00
2023-01-11T04:15:46.953Z,98402.38
2023-01-11T04:19:23.086Z,98400.23
2023-01-11T04:23:02.416Z,98399.65
2023-01-11T04:26:38.135Z,98399.92
2023-01-11T04:30:35.676Z,98401.48
2023-01-11T04:34:18.067Z,98398.16
2023-01-11T04:38:01.745Z,98394.73
2023-01-11T04:41:45.901Z,98392.97
2023-01-11T04:45:11.161Z,98382.88
2023-01-11T04:49:07.264Z,98384.53
2023-01-11T04:52:51.820Z,98382.45
2023-01-11T04:56:16.773Z,98382.01
2023-01-11T04:59:53.333Z,98379.77
2023-01-11T05:03:50.654Z,98379.02
2023-01-11T05:07:15.587Z,98374.79
2023-01-11T05:10:56.793Z,98371.02
2023-01-11T05:14:32.784Z,98363.86
2023-01-11T05:18:28.400Z,98356.32
2023-01-11T05:22:10.972Z,98351.52
2023-01-11T05:25:54.085Z,98351.98
2023-01-11T05:29:45.376Z,98349.07
2023-01-11T05:33:28.809Z,98343.59
2023-01-11T05:36:52.168Z,98345.52
2023-01-11T05:41:00.452Z,98339.33
2023-01-11T05:45:04.830Z,98333.31
2023-01-11T05:48:29.845Z,98337.24
2023-01-11T05:52:08.110Z,98339.77
2023-01-11T05:55:58.300Z,98335.23
2023-01-11T05:59:43.326Z,98336.27
2023-01-11T06:03:10.494Z,98334.56
2023-01-11T06:07:09.196Z,98336.33
2023-01-11T06:10:34.329Z,98338.98
2023-01-11T06:14:11.272Z,98332.76
2023-01-11T06:17:49.294Z,98326.77
2023-01-11T06:21:26.885Z,98332.55
2023-01-11T06:25:03.172Z,98329.79
2023-01-11T06:28:41.571Z,98330.75
2023-01-11T06:32:19.885Z,98327.68
2023-01-11T06:36:00.556Z,98325.93
2023-01-11T06:39:35.574Z,98325.04
2023-01-11T06:43:12.613Z,98325.35
2023-01-11T06:47:10.297Z,98329.50
2023-01-11T06:50:36.865Z,98328.95
2023-01-11T06:54:11.690Z,98330.39
2023-01-11T06:58:09.284Z,98331.14
2023-01-11T07:01:52.725Z,98335.16
2023-01-11T07:05:19.351Z,98341.00
2023-01-11T07:08:56.100Z,98339.01
2023-01-11T07:12:36.562Z,98341.85
2023-01-11T07:16:11.286Z,98339.02
2023-01-11T07:19:49.654Z,98335.55
2023-01-11T07:23:27.969Z,98327.92
2023-01-11T07:27:09.045Z,98323.67
2023-01-11T07:31:00.836Z,98318.55
2023-01-11T07:34:26.105Z,98303.45
2023-01-11T07:38:04.541Z,98297.31
2023-01-11T07:42:17.557Z,98296.57
2023-01-11T07:46:03.027Z,98294.25
2023-01-11T07:49:27.191Z,98289.23
2023-01-11T07:53:04.969Z,98294.31
2023-01-11T07:56:43.140Z,98291.37
2023-01-11T08:00:22.140Z,98295.58
2023-01-11T08:03:57.466Z,98288.77
2023-01-11T08:07:35.317Z,98292.11
2023-01-11T08:11:32.805Z,98285.02
2023-01-11T08:14:59.145Z,98286.90
2023-01-11T08:18:36.434Z,98280.41
2023-01-11T08:22:12.865Z,98277.98
2023-01-11T08:25:49.927Z,98278.50
2023-01-11T08:29:29.722Z,98269.09
2023-01-11T08:33:27.523Z,98266.95
2023-01-11T08:36:54.264Z,98267.33
2023-01-11T08:40:35.014Z,98272.33
2023-01-11T08:44:11.859Z,98278.20
2023-01-11T08:48:05.186Z,98281.23
2023-01-11T08:51:31.796Z,98284.53
2023-01-11T08:55:26.330Z,98280.85
2023-01-11T08:58:51.667Z,98282.63
2023-01-11T09:02:27.697Z,98272.69
2023-01-11T09:06:07.837Z,98274.05
2023-01-11T09:09:45.241Z,98273.86
2023-01-11T09:13:20.683Z,98271.30
2023-01-11T09:16:59.469Z,98272.38
2023-01-11T09:20:36.373Z,98270.28
2023-01-11T09:24:34.298Z,98261.19
2023-01-11T09:28:17.024Z,98268.35
2023-01-11T09:31:44.650Z,98268.30
2023-01-11T09:35:21.923Z,98269.79
2023-01-11T09:39:19.736Z,98266.41
2023-01-11T09:42:49.117Z,98261.98
2023-01-11T09:46:24.653Z,98263.47
2023-01-11T09:50:27.769Z,98253.57
2023-01-11T09:54:20.698Z,98247.03
2023-01-11T09:58:07.756Z,98245.48
2023-01-11T10:02:24.301Z,98246.80
2023-01-11T10:06:23.351Z,98246.25
2023-01-11T10:18:26.031Z,98233.45
2023-01-11T10:19:36.500Z,98223.58
2023-01-11T10:23:32.135Z,98225.48
2023-01-11T10:27:05.619Z,98225.78
2023-01-11T10:30:47.444Z,98221.30
2023-01-11T10:34:59.235Z,98219.81
2023-01-11T10:39:01.463Z,98218.74
2023-01-11T10:42:32.834Z,98217.73
2023-01-11T10:46:14.450Z,98202.16
2023-01-11T10:49:57.504Z,98198.55
2023-01-11T10:53:33.931Z,98198.38
2023-01-11T10:57:22.890Z,98192.54
2023-01-11T11:01:20.621Z,98181.61
2023-01-11T11:05:01.183Z,98175.48
2023-01-11T11:09:02.161Z,98173.77
2023-01-11T11:13:00.599Z,98174.79
2023-01-11T11:16:40.480Z,98173.00
2023-01-11T11:20:15.959Z,98164.55
2023-01-11T11:24:07.783Z,98163.48
2023-01-11T11:27:40.287Z,98151.10
2023-01-11T11:31:14.757Z,98145.96
2023-01-11T11:35:27.198Z,98131.66
2023-01-11T11:39:32.669Z,98126.63
2023-01-11T11:43:22.176Z,98122.00
2023-01-11T11:47:12.467Z,98114.30
2023-01-11T11:50:44.650Z,98100.34
2023-01-11T11:54:21.134Z,98101.21
2023-01-11T11:57:54.480Z,98101.54
2023-01-11T12:01:32.801Z,98100.52
2023-01-11T12:05:10.905Z,98099.60
2023-01-11T12:09:30.496Z,98098.42
2023-01-11T12:13:01.259Z,98099.11
2023-01-11T12:16:44.827Z,98096.19
2023-01-11T12:20:33.066Z,98089.85
2023-01-11T12:24:19.705Z,98087.69
2023-01-11T12:28:05.991Z,98081.20
2023-01-11T12:31:37.483Z,98078.67
2023-01-11T12:35:35.339Z,98075.83
2023-01-11T12:39:15.398Z,98072.08
2023-01-11T12:42:55.125Z,98064.92
2023-01-11T12:46:55.503Z,98059.26
2023-01-11T12:50:24.805Z,98051.79
2023-01-11T12:54:15.244Z,98049.95
2023-01-11T12:58:42.393Z,98049.52
2023-01-11T13:02:46.032Z,98045.33
2023-01-11T13:06:48.360Z,98036.98
2023-01-11T13:10:34.731Z,98028.98
2023-01-11T13:14:24.622Z,98023.70
2023-01-11T13:18:28.628Z,98014.16
2023-01-11T13:21:58.016Z,98011.90
2023-01-11T13:25:53.411Z,98005.33
2023-01-11T13:29:26.359Z,98004.22
2023-01-11T13:33:02.379Z,98000.33
2023-01-11T13:37:01.808Z,97993.90
2023-01-11T13:40:33.989Z,97994.58
2023-01-11T13:44:12.907Z,97994.40
2023-01-11T13:47:55.635Z,97996.33
2023-01-11T13:51:51.159Z,97992.75
2023-01-11T13:55:28.030Z,97986.02
2023-01-11T13:59:17.817Z,97985.40
2023-01-11T14:03:07.481Z,97980.95
2023-01-11T14:06:42.319Z,97977.08
2023-01-11T14:10:18.445Z,97972.95
2023-01-11T14:14:44.204Z,97966.16
2023-01-11T14:18:41.305Z,97972.17
2023-01-11T14:22:34.500Z,97970.39
2023-01-11T14:26:40.418Z,97969.65
2023-01-11T14:30:48.386Z,97966.36
2023-01-11T14:35:15.250Z,97964.76
2023-01-11T14:39:18.068Z,97964.23
2023-01-11T14:43:13.018Z,97970.12
2023-01-11T14:47:17.329Z,97976.64
2023-01-11T14:51:04.510Z,97972.28
2023-01-11T14:54:58.558Z,97974.33
2023-01-11T14:58:25.391Z,97975.26
2023-01-11T15:02:29.048Z,97971.83
2023-01-11T15:06:01.436Z,97972.36
2023-01-11T15:09:47.085Z,97965.78
2023-01-11T15:13:43.110Z,97965.50
2023-01-11T15:17:37.924Z,97963.63
2023-01-11T15:21:24.844Z,97961.20
2023-01-11T15:24:58.793Z,97953.30
2023-01-11T15:29:02.259Z,97947.84
2023-01-11T15:32:45.530Z,97943.20
2023-01-11T15:36:13.443Z,97940.52
2023-01-11T15:40:16.622Z,97936.17
2023-01-11T15:44:21.839Z,97929.48
2023-01-11T15:47:49.738Z,97929.41
2023-01-11T15:51:58.599Z,97932.59
2023-01-11T15:55:28.015Z,97932.21
2023-01-11T15:59:31.063Z,97930.20
2023-01-11T16:03:12.964Z,97926.64
2023-01-11T16:07:18.963Z,97926.23
2023-01-11T16:11:07.348Z,97922.99
2023-01-11T16:14:55.015Z,97922.30
2023-01-11T16:18:46.654Z,97919.36
2023-01-11T16:22:30.067Z,97912.21
2023-01-11T16:26:18.923Z,97908.82
2023-01-11T16:29:49.996Z,97909.31
2023-01-11T16:33:41.401Z,97911.50
2023-01-11T16:37:20.293Z,97911.98
2023-01-11T16:40:54.466Z,97913.16
2023-01-11T16:44:43.572Z,97909.83
2023-01-11T16:48:29.184Z,97909.91
2023-01-11T16:52:29.734Z,97903.63
2023-01-11T16:55:59.053Z,97906.75
2023-01-11T16:59:35.124Z,97908.80
2023-01-11T17:03:33.674Z,97909.30
2023-01-11T17:07:26.867Z,97908.18
2023-01-11T17:11:02.718Z,97905.08
2023-01-11T17:15:07.759Z,97906.28
2023-01-11T17:18:32.072Z,97902.86
2023-01-11T17:22:35.697Z,97902.98
2023-01-11T17:26:02.863Z,97900.80
2023-01-11T17:30:01.308Z,97902.64
2023-01-11T17:33:33.186Z,97902.53
2023-01-11T17:37:23.620Z,97894.36
2023-01-11T17:41:26.821Z,97899.63
2023-01-11T17:45:12.736Z,97906.72
2023-01-11T17:49:00.108Z,97911.63
2023-01-11T17:52:54.669Z,97908.54
2023-01-11T17:56:40.350Z,97898.33
2023-01-11T18:00:27.627Z,97893.73
2023-01-11T18:03:57.939Z,97899.09
2023-01-11T18:07:31.595Z,97904.04
2023-01-11T18:11:30.158Z,97903.72
2023-01-11T18:14:59.922Z,97897.91
2023-01-11T18:18:55.147Z,97899.66
2023-01-11T18:22:42.748Z,97895.98
2023-01-11T18:26:31.134Z,97898.39
2023-01-11T18:29:58.531Z,97899.12
2023-01-11T18:33:35.160Z,97887.02
2023-01-11T18:37:12.353Z,97882.56
2023-01-11T18:41:27.845Z,97878.41
2023-01-11T18:44:55.205Z,97887.09
2023-01-11T18:48:30.112Z,97893.75
2023-01-11T18:52:09.180Z,97894.67
2023-01-11T18:56:04.235Z,97896.91
2023-01-11T18:59:29.134Z,97895.26
2023-01-11T19:03:05.921Z,97895.71
2023-01-11T19:07:02.098Z,97897.64
2023-01-11T19:10:48.076Z,97903.52
2023-01-11T19:14:22.299Z,97898.72
2023-01-11T19:17:49.697Z,97894.65
2023-01-11T19:21:49.445Z,97892.64
2023-01-11T19:25:17.628Z,97892.83
2023-01-11T19:29:16.830Z,97896.83
2023-01-11T19:32:40.428Z,97899.61
2023-01-11T19:36:21.112Z,97896.16
2023-01-11T19:39:58.572Z,97889.44
2023-01-11T19:43:36.556Z,97890.77
2023-01-11T19:47:13.438Z,97890.69
2023-01-11T19:50:48.880Z,97894.47
2023-01-11T19:54:48.053Z,97902.01
2023-01-11T19:58:33.478Z,97904.08
2023-01-11T20:02:22.421Z,97909.27
2023-01-11T20:05:49.710Z,97914.06
2023-01-11T20:09:44.669Z,97913.77
2023-01-11T20:13:31.338Z,97913.39
2023-01-11T20:17:23.172Z,97911.35
2023-01-11T20:21:07.984Z,97907.81
2023-01-11T20:24:33.580Z,97906.87
2023-01-11T20:28:29.946Z,97900.89
2023-01-11T20:32:35.055Z,97895.61
2023-01-11T20:36:17.545Z,97903.13
2023-01-11T20:40:01.129Z,97913.13
2023-01-11T20:43:26.591Z,97922.43
2023-01-11T20:47:24.696Z,97925.48
2023-01-11T20:51:08.825Z,97925.58
2023-01-11T20:54:52.162Z,97924.47
2023-01-11T20:58:17.025Z,97925.27
2023-01-11T21:02:15.486Z,97934.15
2023-01-11T21:05:40.920Z,97932.58
2023-01-11T21:09:36.671Z,97939.10
2023-01-11T21:16:42.948Z,97942.13
2023-01-11T21:20:17.361Z,97935.89
2023-01-11T21:23:57.388Z,97936.06
2023-01-11T21:27:31.091Z,97937.20
2023-01-11T21:31:29.259Z,97941.65
2023-01-11T21:34:53.379Z,97945.80
2023-01-11T21:38:50.223Z,97940.83
2023-01-11T21:42:34.488Z,97939.63
2023-01-11T21:46:00.389Z,97940.84
2023-01-11T21:49:36.620Z,97943.20
2023-01-11T21:53:13.410Z,97940.34
2023-01-11T21:56:53.211Z,97945.86
2023-01-11T22:00:32.013Z,97947.73
2023-01-11T22:04:26.233Z,97944.26
2023-01-11T22:07:52.120Z,97938.91
2023-01-11T22:11:46.918Z,97944.66
2023-01-11T22:15:13.577Z,97943.94
2023-01-11T22:18:59.837Z,97945.60
2023-01-11T22:22:46.252Z,97946.03
2023-01-11T22:26:15.907Z,97947.91
2023-01-11T22:30:07.657Z,97950.65
2023-01-11T22:46:49.878Z,97963.63
2023-01-11T22:50:45.656Z,97966.69
2023-01-11T22:54:15.398Z,97971.73
2023-01-11T22:58:12.007Z,97970.91
2023-01-11T23:01:40.461Z,97974.34
2023-01-11T23:05:34.126Z,97975.48
2023-01-11T23:08:58.161Z,97983.61
2023-01-11T23:13:14.459Z,97984.58
2023-01-11T23:16:40.126Z,97983.69
2023-01-11T23:20:35.129Z,97985.38
2023-01-11T23:24:01.100Z,97983.98
2023-01-11T23:27:36.634Z,97987.04
2023-01-11T23:31:19.676Z,97991.32
2023-01-11T23:34:55.931Z,97992.27
2023-01-11T23:38:31.859Z,97990.76
2023-01-11T23:42:27.612Z,97991.13
2023-01-11T23:46:15.910Z,97990.64
2023-01-11T23:49:41.916Z,97994.89
2023-01-11T23:53:22.947Z,97996.11
2023-01-11T23:56:57.375Z,98003.39
